Time;durP1;ratioP1;P1;durP2;ratioP2;P2;SDS_P1;SDS_P2;PMS_P1;PMS_P2;Temp;Humidity;BMP_temperature;BMP_pressure;BME280_temperature;BME280_humidity;BME280_pressure;Samples;Min_cycle;Max_cycle;Signal;HPM_P1;HPM_P2
2024/01/30 00:01:23;;;;;;;27.30;20.90;;;;;;;;;;5016709;28;20382;-82
2024/01/30 00:03:50;;;;;;;27.42;21.50;;;;;;;;;;5016007;28;20494;-81
2024/01/30 00:06:18;;;;;;;30.40;21.27;;;;;;;;;;5016291;28;20386;-81
2024/01/30 00:08:46;;;;;;;25.33;19.87;;;;;;;;;;5016009;28;20437;-81
2024/01/30 00:11:12;;;;;;;28.57;20.70;;;;;;;;;;5034173;28;20415;-81
2024/01/30 00:13:38;;;;;;;23.40;19.33;;;;;;;;;;5033971;28;20864;-81
2024/01/30 00:16:04;;;;;;;24.63;19.42;;;;;;;;;;5033864;28;20407;-81
2024/01/30 00:18:30;;;;;;;27.90;22.50;;;;;;;;;;5034065;28;20437;-81
2024/01/30 00:20:56;;;;;;;25.45;20.13;;;;;;;;;;5033899;28;20379;-81
2024/01/30 00:23:22;;;;;;;26.25;20.50;;;;;;;;;;5033796;28;20437;-81
2024/01/30 00:25:48;;;;;;;41.55;29.20;;;;;;;;;;5015862;28;20399;-81
2024/01/30 00:28:14;;;;;;;25.85;20.58;;;;;;;;;;5033622;28;20832;-81
2024/01/30 00:30:40;;;;;;;26.42;20.83;;;;;;;;;;5016093;28;20392;-81
2024/01/30 00:33:06;;;;;;;24.05;19.92;;;;;;;;;;5015681;28;20410;-81
2024/01/30 00:35:34;;;;;;;21.83;18.80;;;;;;;;;;5032373;28;21378;-81
2024/01/30 00:38:00;;;;;;;27.35;20.75;;;;;;;;;;5033288;28;20383;-81
2024/01/30 00:40:26;;;;;;;28.00;21.02;;;;;;;;;;5015786;28;20470;-81
2024/01/30 00:42:52;;;;;;;24.60;20.42;;;;;;;;;;5032202;28;20429;-81
2024/01/30 00:45:18;;;;;;;28.05;21.02;;;;;;;;;;5033248;28;20891;-81
2024/01/30 00:47:44;;;;;;;27.88;21.15;;;;;;;;;;5033182;28;20375;-81
2024/01/30 00:50:10;;;;;;;29.73;20.77;;;;;;;;;;5034013;28;20752;-81
2024/01/30 00:52:36;;;;;;;26.03;19.90;;;;;;;;;;5033304;28;20394;-81
2024/01/30 00:55:03;;;;;;;27.00;20.73;;;;;;;;;;5033746;28;20387;-81
2024/01/30 00:57:29;;;;;;;31.15;21.80;;;;;;;;;;5033161;28;20876;-81
2024/01/30 00:59:55;;;;;;;33.25;22.40;;;;;;;;;;5033051;28;20869;-81
2024/01/30 01:02:21;;;;;;;32.15;22.20;;;;;;;;;;5033317;28;20395;-81
2024/01/30 01:04:47;;;;;;;31.40;22.52;;;;;;;;;;5033236;28;20895;-82
2024/01/30 01:07:13;;;;;;;32.33;22.43;;;;;;;;;;5032800;28;20468;-81
2024/01/30 01:09:39;;;;;;;32.17;22.60;;;;;;;;;;5032570;28;20418;-81
2024/01/30 01:12:05;;;;;;;30.27;22.73;;;;;;;;;;5015060;28;20896;-81
2024/01/30 01:14:31;;;;;;;31.48;22.33;;;;;;;;;;5014819;28;20387;-81
2024/01/30 01:16:57;;;;;;;32.40;22.58;;;;;;;;;;5033067;28;20393;-81
2024/01/30 01:19:23;;;;;;;32.25;22.38;;;;;;;;;;5032691;28;20451;-81
2024/01/30 01:21:49;;;;;;;31.15;22.27;;;;;;;;;;5032492;28;20437;-81
2024/01/30 01:24:15;;;;;;;30.98;21.80;;;;;;;;;;5033269;28;20453;-81
2024/01/30 01:26:41;;;;;;;29.67;21.30;;;;;;;;;;5012611;28;20455;-81
2024/01/30 01:29:11;;;;;;;29.40;21.30;;;;;;;;;;5031749;28;20470;-81
2024/01/30 01:31:43;;;;;;;30.20;22.00;;;;;;;;;;5007592;28;20740;-81
2024/01/30 01:34:10;;;;;;;30.25;21.42;;;;;;;;;;5014671;28;20469;-81
2024/01/30 01:36:36;;;;;;;27.88;20.80;;;;;;;;;;5032569;28;20433;-81
2024/01/30 01:39:03;;;;;;;28.77;21.40;;;;;;;;;;5032480;28;20436;-81
2024/01/30 01:41:32;;;;;;;27.15;19.75;;;;;;;;;;5029010;28;20465;-81
2024/01/30 01:43:58;;;;;;;27.15;20.17;;;;;;;;;;5032013;28;20433;-81
2024/01/30 01:46:25;;;;;;;27.03;19.70;;;;;;;;;;5032029;28;20386;-81
2024/01/30 01:48:51;;;;;;;25.90;19.50;;;;;;;;;;5032215;28;20401;-82
2024/01/30 01:51:17;;;;;;;23.67;18.08;;;;;;;;;;5031932;28;20844;-81
2024/01/30 01:53:43;;;;;;;25.45;18.48;;;;;;;;;;5034167;28;20387;-81
2024/01/30 01:56:09;;;;;;;25.60;18.27;;;;;;;;;;5036547;28;20394;-81
2024/01/30 01:58:36;;;;;;;23.45;16.95;;;;;;;;;;5018656;28;20402;-81
2024/01/30 02:01:02;;;;;;;22.52;17.58;;;;;;;;;;5036173;28;20387;-82
2024/01/30 02:03:29;;;;;;;22.15;17.40;;;;;;;;;;5036653;28;20502;-82
2024/01/30 02:05:55;;;;;;;23.40;17.63;;;;;;;;;;5036439;28;20414;-81
2024/01/30 02:08:21;;;;;;;23.98;17.52;;;;;;;;;;5036139;28;20382;-81
2024/01/30 02:10:47;;;;;;;25.63;18.42;;;;;;;;;;5018863;28;20456;-81
2024/01/30 02:13:13;;;;;;;25.30;18.53;;;;;;;;;;5035959;28;20469;-81
2024/01/30 02:15:39;;;;;;;25.73;18.67;;;;;;;;;;5036540;28;20429;-81
2024/01/30 02:18:05;;;;;;;28.77;19.42;;;;;;;;;;5036528;28;20395;-81
2024/01/30 02:20:32;;;;;;;28.48;20.60;;;;;;;;;;5036889;28;20387;-81
2024/01/30 02:23:01;;;;;;;28.45;20.10;;;;;;;;;;5036032;28;20390;-82
2024/01/30 02:25:38;;;;;;;27.33;19.48;;;;;;;;;;5036031;28;20398;-82
2024/01/30 02:28:04;;;;;;;27.35;19.98;;;;;;;;;;5035474;28;20419;-81
2024/01/30 02:30:30;;;;;;;30.70;20.30;;;;;;;;;;5035064;28;20431;-81
2024/01/30 02:32:56;;;;;;;30.13;20.45;;;;;;;;;;5016794;28;20391;-81
2024/01/30 02:35:22;;;;;;;31.40;21.23;;;;;;;;;;5034494;28;20503;-81
2024/01/30 02:37:48;;;;;;;28.60;19.52;;;;;;;;;;5034720;28;20390;-81
2024/01/30 02:40:14;;;;;;;29.05;20.17;;;;;;;;;;5035186;28;20394;-81
2024/01/30 02:42:41;;;;;;;29.63;20.73;;;;;;;;;;5034626;28;20391;-81
2024/01/30 02:45:08;;;;;;;30.30;21.05;;;;;;;;;;5034616;28;20414;-81
2024/01/30 02:47:34;;;;;;;30.85;20.65;;;;;;;;;;5034675;28;20375;-81
2024/01/30 02:50:00;;;;;;;28.67;20.35;;;;;;;;;;5034684;28;20926;-81
2024/01/30 02:52:26;;;;;;;27.02;19.63;;;;;;;;;;5034222;28;20387;-82
2024/01/30 02:54:52;;;;;;;29.33;20.35;;;;;;;;;;5034803;28;20437;-81
2024/01/30 02:57:18;;;;;;;28.33;19.60;;;;;;;;;;5018174;28;20426;-81
2024/01/30 02:59:43;;;;;;;26.92;19.45;;;;;;;;;;5034462;28;20387;-81
2024/01/30 03:02:09;;;;;;;27.38;19.52;;;;;;;;;;5035113;28;20904;-81
2024/01/30 03:04:35;;;;;;;29.60;19.45;;;;;;;;;;5032985;28;20485;-81
2024/01/30 03:07:01;;;;;;;30.10;19.58;;;;;;;;;;5034487;28;20411;-81
2024/01/30 03:09:27;;;;;;;29.05;20.20;;;;;;;;;;5034394;28;20760;-81
2024/01/30 03:11:54;;;;;;;28.17;19.92;;;;;;;;;;5033847;28;20371;-81
2024/01/30 03:14:20;;;;;;;25.83;18.98;;;;;;;;;;5019945;28;20810;-81
2024/01/30 03:16:46;;;;;;;27.73;19.52;;;;;;;;;;5033261;28;20394;-81
2024/01/30 03:19:12;;;;;;;27.23;18.77;;;;;;;;;;5016527;28;20480;-81
2024/01/30 03:21:38;;;;;;;29.67;19.45;;;;;;;;;;5033870;28;20444;-81
2024/01/30 03:24:04;;;;;;;27.95;19.55;;;;;;;;;;5033749;28;20391;-81
2024/01/30 03:26:30;;;;;;;29.60;19.77;;;;;;;;;;5016691;28;20379;-81
2024/01/30 03:28:56;;;;;;;25.57;19.07;;;;;;;;;;5016637;28;20379;-81
2024/01/30 03:31:22;;;;;;;27.90;19.60;;;;;;;;;;5033722;28;20379;-81
2024/01/30 03:33:48;;;;;;;28.03;19.80;;;;;;;;;;5034437;28;20960;-81
2024/01/30 03:36:16;;;;;;;30.02;20.10;;;;;;;;;;5028319;28;20396;-81
2024/01/30 03:38:42;;;;;;;31.27;20.60;;;;;;;;;;5029072;28;20395;-81
2024/01/30 03:41:09;;;;;;;29.65;19.83;;;;;;;;;;5033396;28;20390;-81
2024/01/30 03:43:35;;;;;;;31.50;19.95;;;;;;;;;;5033895;28;20502;-81
2024/01/30 03:46:02;;;;;;;26.07;19.17;;;;;;;;;;5017714;28;20530;-82
2024/01/30 03:48:28;;;;;;;30.20;20.48;;;;;;;;;;5034202;28;20449;-81
2024/01/30 03:50:54;;;;;;;27.77;20.08;;;;;;;;;;5015084;28;20973;-81
2024/01/30 03:53:20;;;;;;;31.70;20.50;;;;;;;;;;5005531;28;20470;-81
2024/01/30 03:55:46;;;;;;;28.70;19.45;;;;;;;;;;5034283;28;20391;-82
2024/01/30 03:58:12;;;;;;;32.38;21.42;;;;;;;;;;5034000;28;20383;-81
2024/01/30 04:00:38;;;;;;;30.00;19.88;;;;;;;;;;5034786;28;20809;-81
2024/01/30 04:03:04;;;;;;;30.70;19.67;;;;;;;;;;5117562;22;20423;-78
2024/01/30 04:05:30;;;;;;;31.50;20.30;;;;;;;;;;5026652;28;20415;-79
2024/01/30 04:07:57;;;;;;;27.85;19.17;;;;;;;;;;5027011;28;20386;-77
2024/01/30 04:10:23;;;;;;;26.40;19.10;;;;;;;;;;5026838;28;20469;-79
2024/01/30 04:12:49;;;;;;;28.25;19.77;;;;;;;;;;5043775;28;20387;-78
2024/01/30 04:15:16;;;;;;;28.33;19.15;;;;;;;;;;5045575;28;20394;-78
2024/01/30 04:17:42;;;;;;;31.25;20.45;;;;;;;;;;5044785;28;20388;-79
2024/01/30 04:20:08;;;;;;;33.97;21.80;;;;;;;;;;5044093;28;20387;-78
2024/01/30 04:22:34;;;;;;;38.65;23.55;;;;;;;;;;5044845;28;20745;-79
2024/01/30 04:25:00;;;;;;;36.27;22.23;;;;;;;;;;5044430;28;20489;-77
2024/01/30 04:27:26;;;;;;;37.72;22.63;;;;;;;;;;5044677;28;20401;-78
2024/01/30 04:29:52;;;;;;;42.38;23.92;;;;;;;;;;5044909;28;20375;-78
2024/01/30 04:32:18;;;;;;;45.28;24.98;;;;;;;;;;5045021;28;20379;-78
2024/01/30 04:34:44;;;;;;;39.20;23.08;;;;;;;;;;5026434;28;20402;-79
2024/01/30 04:37:11;;;;;;;43.30;24.15;;;;;;;;;;5045495;28;20395;-78
2024/01/30 04:39:37;;;;;;;43.15;24.45;;;;;;;;;;5034355;28;20400;-79
2024/01/30 04:42:03;;;;;;;45.22;25.08;;;;;;;;;;5029413;28;20429;-78
2024/01/30 04:44:29;;;;;;;48.67;26.48;;;;;;;;;;5032519;28;20424;-79
2024/01/30 04:46:58;;;;;;;48.45;26.52;;;;;;;;;;5047511;28;20395;-78
2024/01/30 04:49:24;;;;;;;48.00;26.73;;;;;;;;;;5044458;28;20388;-79
2024/01/30 04:51:50;;;;;;;55.23;29.30;;;;;;;;;;5043957;28;20403;-78
2024/01/30 04:54:16;;;;;;;49.17;26.52;;;;;;;;;;5044200;28;20399;-78
2024/01/30 04:56:42;;;;;;;46.78;25.30;;;;;;;;;;5043627;28;20394;-78
2024/01/30 04:59:08;;;;;;;50.50;28.25;;;;;;;;;;5043392;28;20451;-79
2024/01/30 05:01:34;;;;;;;53.35;27.92;;;;;;;;;;5043725;28;20386;-77
2024/01/30 05:04:01;;;;;;;48.03;26.40;;;;;;;;;;5025459;28;20500;-79
2024/01/30 05:06:27;;;;;;;49.33;26.85;;;;;;;;;;5043560;28;20387;-79
2024/01/30 05:08:53;;;;;;;48.55;27.42;;;;;;;;;;5043731;28;20403;-79
2024/01/30 05:11:19;;;;;;;47.70;25.77;;;;;;;;;;5043921;28;20419;-79
2024/01/30 05:13:45;;;;;;;45.53;25.95;;;;;;;;;;5043661;28;20391;-79
2024/01/30 05:16:11;;;;;;;42.25;25.02;;;;;;;;;;5043418;28;20417;-79
2024/01/30 05:18:37;;;;;;;42.58;24.73;;;;;;;;;;5044453;28;20423;-78
2024/01/30 05:21:03;;;;;;;43.30;24.63;;;;;;;;;;5043881;28;20395;-78
2024/01/30 05:23:29;;;;;;;44.53;25.60;;;;;;;;;;5041916;28;20854;-79
2024/01/30 05:25:55;;;;;;;40.80;24.13;;;;;;;;;;5041520;28;20469;-79
2024/01/30 05:28:21;;;;;;;42.72;24.88;;;;;;;;;;5043190;28;20414;-79
2024/01/30 05:30:47;;;;;;;39.78;24.13;;;;;;;;;;5043477;28;20425;-78
2024/01/30 05:33:13;;;;;;;40.60;24.33;;;;;;;;;;5043349;28;20414;-78
2024/01/30 05:35:39;;;;;;;39.88;24.27;;;;;;;;;;5044004;28;20396;-79
2024/01/30 05:38:05;;;;;;;39.13;23.00;;;;;;;;;;5025867;28;20395;-79
2024/01/30 05:40:31;;;;;;;37.53;23.17;;;;;;;;;;5044206;28;20470;-79
2024/01/30 05:43:02;;;;;;;41.13;23.67;;;;;;;;;;5043215;28;20838;-79
2024/01/30 05:45:28;;;;;;;36.75;23.20;;;;;;;;;;5043586;28;20430;-79
2024/01/30 05:47:54;;;;;;;35.53;22.33;;;;;;;;;;5043076;28;20383;-79
2024/01/30 05:50:23;;;;;;;39.70;22.50;;;;;;;;;;5043047;28;20387;-79
2024/01/30 05:52:49;;;;;;;60.30;30.20;;;;;;;;;;5043816;28;20379;-79
2024/01/30 05:55:15;;;;;;;61.10;32.40;;;;;;;;;;5043894;28;20439;-78
2024/01/30 05:57:41;;;;;;;35.63;22.80;;;;;;;;;;5039842;28;20381;-79
2024/01/30 06:00:08;;;;;;;38.92;22.95;;;;;;;;;;5039122;28;20380;-79
2024/01/30 06:02:34;;;;;;;37.25;22.77;;;;;;;;;;5043194;28;20398;-79
2024/01/30 06:05:00;;;;;;;35.87;22.60;;;;;;;;;;5042666;28;20881;-79
2024/01/30 06:07:26;;;;;;;38.33;23.95;;;;;;;;;;5042742;28;20383;-79
2024/01/30 06:09:52;;;;;;;39.55;24.13;;;;;;;;;;5044235;28;20395;-79
2024/01/30 06:12:18;;;;;;;42.40;23.80;;;;;;;;;;5042430;28;20381;-78
2024/01/30 06:14:44;;;;;;;42.85;24.00;;;;;;;;;;5043703;28;20383;-79
2024/01/30 06:17:11;;;;;;;39.22;23.38;;;;;;;;;;5042363;28;20383;-79
2024/01/30 06:19:38;;;;;;;39.65;23.08;;;;;;;;;;5042998;28;20441;-79
2024/01/30 06:22:04;;;;;;;38.70;23.95;;;;;;;;;;5043630;28;20379;-79
2024/01/30 06:24:30;;;;;;;35.25;22.00;;;;;;;;;;5043343;28;20414;-79
2024/01/30 06:26:56;;;;;;;35.60;22.33;;;;;;;;;;5043509;28;20463;-78
2024/01/30 06:29:24;;;;;;;35.25;22.25;;;;;;;;;;5039879;28;20375;-79
2024/01/30 06:31:50;;;;;;;38.65;22.75;;;;;;;;;;5039641;28;20869;-79
2024/01/30 06:34:16;;;;;;;38.08;22.75;;;;;;;;;;5040695;28;20391;-79
2024/01/30 06:36:42;;;;;;;38.55;22.90;;;;;;;;;;5040186;28;20384;-79
2024/01/30 06:39:08;;;;;;;37.70;23.02;;;;;;;;;;5040836;28;20450;-79
2024/01/30 06:41:34;;;;;;;38.88;22.80;;;;;;;;;;5046102;28;20386;-79
2024/01/30 06:44:03;;;;;;;44.33;23.52;;;;;;;;;;5045646;28;20384;-79
2024/01/30 06:46:29;;;;;;;36.47;23.15;;;;;;;;;;5045817;28;20848;-79
2024/01/30 06:48:55;;;;;;;36.30;22.67;;;;;;;;;;5046207;28;20387;-79
2024/01/30 06:51:21;;;;;;;38.35;23.08;;;;;;;;;;5045051;28;20410;-79
2024/01/30 06:53:47;;;;;;;36.92;22.83;;;;;;;;;;5045524;28;20884;-79
2024/01/30 06:56:13;;;;;;;43.92;24.13;;;;;;;;;;5045762;28;20383;-79
2024/01/30 06:58:39;;;;;;;41.78;25.25;;;;;;;;;;5044358;28;20864;-81
2024/01/30 07:01:05;;;;;;;43.33;25.47;;;;;;;;;;5042204;28;20387;-79
2024/01/30 07:03:31;;;;;;;42.75;25.48;;;;;;;;;;5045712;28;20446;-79
2024/01/30 07:05:57;;;;;;;41.63;24.88;;;;;;;;;;5044437;28;20417;-79
2024/01/30 07:08:23;;;;;;;44.60;25.88;;;;;;;;;;5043935;28;20462;-79
2024/01/30 07:10:49;;;;;;;43.90;25.45;;;;;;;;;;5041336;28;20397;-81
2024/01/30 07:13:16;;;;;;;40.55;25.02;;;;;;;;;;5041047;28;20399;-81
2024/01/30 07:15:42;;;;;;;44.63;25.60;;;;;;;;;;5040548;28;20868;-80
2024/01/30 07:18:09;;;;;;;43.00;25.27;;;;;;;;;;5039592;28;20386;-81
2024/01/30 07:20:35;;;;;;;47.70;26.42;;;;;;;;;;5040014;28;20908;-80
2024/01/30 07:23:03;;;;;;;43.27;24.57;;;;;;;;;;5038819;28;20749;-81
2024/01/30 07:25:29;;;;;;;48.78;26.52;;;;;;;;;;5039903;28;20407;-80
2024/01/30 07:27:55;;;;;;;42.95;24.52;;;;;;;;;;5040357;28;20435;-79
2024/01/30 07:30:23;;;;;;;44.95;25.60;;;;;;;;;;5044809;28;20868;-79
2024/01/30 07:32:49;;;;;;;48.10;26.80;;;;;;;;;;5043422;28;20387;-79
2024/01/30 07:35:15;;;;;;;46.58;26.15;;;;;;;;;;5043480;28;20383;-79
2024/01/30 07:37:41;;;;;;;45.45;25.17;;;;;;;;;;5043419;28;20385;-79
2024/01/30 07:40:07;;;;;;;48.75;26.75;;;;;;;;;;5043062;28;20407;-79
2024/01/30 07:42:33;;;;;;;44.20;25.80;;;;;;;;;;5042249;28;20387;-79
2024/01/30 07:45:00;;;;;;;44.83;26.20;;;;;;;;;;5042614;28;20557;-78
2024/01/30 07:47:26;;;;;;;47.63;26.92;;;;;;;;;;5043003;28;20381;-79
2024/01/30 07:49:54;;;;;;;44.25;24.83;;;;;;;;;;5042513;28;20387;-79
2024/01/30 07:52:20;;;;;;;44.97;25.42;;;;;;;;;;5042413;28;20379;-79
2024/01/30 07:54:49;;;;;;;42.40;24.35;;;;;;;;;;5041202;28;20457;-79
2024/01/30 07:57:15;;;;;;;44.10;25.75;;;;;;;;;;5039788;28;20407;-80
2024/01/30 07:59:45;;;;;;;44.70;24.93;;;;;;;;;;5039018;28;20387;-80
2024/01/30 08:02:12;;;;;;;42.05;24.20;;;;;;;;;;5039961;28;20425;-80
2024/01/30 08:04:38;;;;;;;42.58;24.52;;;;;;;;;;5038355;28;20856;-80
2024/01/30 08:07:04;;;;;;;47.03;25.27;;;;;;;;;;5039370;28;20506;-80
2024/01/30 08:09:30;;;;;;;48.05;26.42;;;;;;;;;;5038902;28;20411;-79
2024/01/30 08:11:56;;;;;;;43.30;24.27;;;;;;;;;;5040078;28;20738;-79
2024/01/30 08:14:23;;;;;;;38.78;23.23;;;;;;;;;;5044987;28;20421;-79
2024/01/30 08:16:49;;;;;;;38.70;22.98;;;;;;;;;;5045347;28;20800;-80
2024/01/30 08:19:15;;;;;;;36.97;23.67;;;;;;;;;;5044498;28;20920;-78
2024/01/30 08:21:41;;;;;;;45.03;25.65;;;;;;;;;;5041543;28;20452;-79
2024/01/30 08:24:07;;;;;;;44.47;26.60;;;;;;;;;;5046362;28;20390;-79
2024/01/30 08:26:33;;;;;;;49.77;27.10;;;;;;;;;;5044056;28;20958;-78
2024/01/30 08:28:59;;;;;;;49.17;26.40;;;;;;;;;;5046133;28;20743;-79
2024/01/30 08:31:26;;;;;;;53.90;29.27;;;;;;;;;;5044117;28;20474;-78
2024/01/30 08:33:52;;;;;;;48.10;26.92;;;;;;;;;;5041156;28;20402;-79
2024/01/30 08:36:18;;;;;;;46.90;26.63;;;;;;;;;;5022979;28;20399;-78
2024/01/30 08:38:44;;;;;;;50.60;27.88;;;;;;;;;;5041167;28;20441;-78
2024/01/30 08:41:10;;;;;;;47.75;27.33;;;;;;;;;;5040607;28;20394;-78
2024/01/30 08:43:36;;;;;;;47.58;26.98;;;;;;;;;;5040228;28;20391;-79
2024/01/30 08:46:03;;;;;;;49.55;27.63;;;;;;;;;;5040005;28;20410;-78
2024/01/30 08:48:29;;;;;;;48.65;27.80;;;;;;;;;;5039953;28;20403;-78
2024/01/30 08:50:55;;;;;;;45.53;27.25;;;;;;;;;;5040069;28;20386;-78
2024/01/30 08:53:21;;;;;;;49.55;27.55;;;;;;;;;;5023087;28;20881;-79
2024/01/30 08:55:47;;;;;;;52.90;29.00;;;;;;;;;;5044254;28;20417;-79
2024/01/30 08:58:13;;;;;;;52.95;29.30;;;;;;;;;;5041874;28;20390;-79
2024/01/30 09:00:39;;;;;;;51.72;28.98;;;;;;;;;;5042957;28;20387;-79
2024/01/30 09:03:05;;;;;;;59.50;33.53;;;;;;;;;;5039010;28;20422;-79
2024/01/30 09:05:31;;;;;;;51.67;29.83;;;;;;;;;;5038400;28;20844;-79
2024/01/30 09:07:57;;;;;;;52.83;29.42;;;;;;;;;;5043654;28;20429;-79
2024/01/30 09:10:23;;;;;;;52.78;30.20;;;;;;;;;;5044074;28;20375;-79
2024/01/30 09:12:49;;;;;;;51.55;28.92;;;;;;;;;;5042998;28;20367;-78
2024/01/30 09:15:15;;;;;;;52.63;29.77;;;;;;;;;;5044023;28;20390;-79
2024/01/30 09:17:41;;;;;;;53.42;30.05;;;;;;;;;;5043634;28;20414;-79
2024/01/30 09:20:09;;;;;;;56.10;30.17;;;;;;;;;;5044430;28;20387;-79
2024/01/30 09:22:35;;;;;;;56.63;31.83;;;;;;;;;;5043220;28;20405;-79
2024/01/30 09:25:01;;;;;;;59.15;31.83;;;;;;;;;;5043342;28;20419;-79
2024/01/30 09:27:26;;;;;;;60.08;31.85;;;;;;;;;;5042587;28;20379;-78
2024/01/30 09:29:52;;;;;;;64.88;34.60;;;;;;;;;;5043635;28;20888;-79
2024/01/30 09:32:18;;;;;;;72.18;35.30;;;;;;;;;;5043140;28;20379;-79
2024/01/30 09:34:45;;;;;;;67.38;36.42;;;;;;;;;;5043024;28;20402;-79
2024/01/30 09:37:11;;;;;;;77.82;37.63;;;;;;;;;;5043499;28;20387;-79
2024/01/30 09:39:37;;;;;;;71.80;36.97;;;;;;;;;;5043110;28;20383;-79
2024/01/30 09:42:08;;;;;;;68.22;35.00;;;;;;;;;;5042542;28;20379;-79
2024/01/30 09:44:36;;;;;;;69.53;36.28;;;;;;;;;;5041756;28;20408;-79
2024/01/30 09:47:05;;;;;;;76.93;38.08;;;;;;;;;;5010978;28;20419;-79
2024/01/30 09:49:35;;;;;;;73.53;38.28;;;;;;;;;;5040774;28;20770;-79
2024/01/30 09:52:02;;;;;;;81.78;40.95;;;;;;;;;;5020240;28;20478;-80
2024/01/30 09:54:30;;;;;;;86.38;41.67;;;;;;;;;;5036527;28;20741;-80
2024/01/30 09:56:56;;;;;;;94.07;43.95;;;;;;;;;;5037757;28;20470;-79
2024/01/30 09:59:22;;;;;;;98.63;50.28;;;;;;;;;;5019402;28;20430;-80
2024/01/30 10:01:48;;;;;;;90.55;43.10;;;;;;;;;;5036028;28;20387;-80
2024/01/30 10:04:14;;;;;;;102.15;50.47;;;;;;;;;;5037930;28;20414;-80
2024/01/30 10:06:40;;;;;;;93.68;47.05;;;;;;;;;;5039552;28;20415;-79
2024/01/30 10:09:06;;;;;;;86.57;43.50;;;;;;;;;;5042645;28;20387;-78
2024/01/30 10:11:34;;;;;;;90.35;44.63;;;;;;;;;;5044245;28;20379;-79
2024/01/30 10:14:01;;;;;;;91.68;44.38;;;;;;;;;;5044689;28;20777;-79
2024/01/30 10:16:27;;;;;;;81.63;42.45;;;;;;;;;;5047436;28;20868;-78
2024/01/30 10:18:53;;;;;;;82.47;40.03;;;;;;;;;;5047174;28;20395;-79
2024/01/30 10:21:19;;;;;;;80.40;38.05;;;;;;;;;;5047010;28;20390;-79
2024/01/30 10:23:45;;;;;;;77.28;39.58;;;;;;;;;;5047651;28;20442;-79
2024/01/30 10:26:11;;;;;;;88.55;41.58;;;;;;;;;;5047096;28;20896;-79
2024/01/30 10:28:37;;;;;;;80.80;40.25;;;;;;;;;;5047706;28;20478;-79
2024/01/30 10:31:06;;;;;;;77.82;38.38;;;;;;;;;;5048021;28;20413;-79
2024/01/30 10:33:32;;;;;;;78.63;39.75;;;;;;;;;;5047413;28;20910;-79
2024/01/30 10:36:05;;;;;;;78.00;39.67;;;;;;;;;;5048578;28;20465;-79
2024/01/30 10:38:32;;;;;;;81.43;40.42;;;;;;;;;;5047525;28;20383;-79
2024/01/30 10:40:58;;;;;;;83.88;40.38;;;;;;;;;;5047911;28;20386;-79
2024/01/30 10:43:25;;;;;;;77.80;39.40;;;;;;;;;;5047424;28;20391;-79
2024/01/30 10:45:54;;;;;;;81.25;39.80;;;;;;;;;;5047499;28;20398;-79
2024/01/30 10:48:24;;;;;;;79.30;39.20;;;;;;;;;;5047942;28;20393;-79
2024/01/30 10:50:51;;;;;;;86.18;41.10;;;;;;;;;;5046541;28;20391;-79
2024/01/30 10:53:18;;;;;;;79.95;39.28;;;;;;;;;;5048852;28;20378;-80
2024/01/30 10:55:45;;;;;;;88.05;42.63;;;;;;;;;;5047834;28;20390;-79
2024/01/30 10:58:12;;;;;;;79.43;40.97;;;;;;;;;;5046475;28;20387;-79
2024/01/30 11:00:38;;;;;;;79.90;39.65;;;;;;;;;;5032728;28;20398;-79
2024/01/30 11:03:05;;;;;;;76.53;38.97;;;;;;;;;;5045779;28;20568;-79
2024/01/30 11:05:31;;;;;;;83.40;40.25;;;;;;;;;;5045857;28;20411;-78
2024/01/30 11:07:57;;;;;;;86.47;43.08;;;;;;;;;;5046623;28;20406;-80
2024/01/30 11:10:25;;;;;;;93.97;45.13;;;;;;;;;;5045383;28;20375;-78
2024/01/30 11:12:51;;;;;;;95.25;45.63;;;;;;;;;;5046164;28;20394;-79
2024/01/30 11:15:18;;;;;;;87.30;44.15;;;;;;;;;;5046078;28;20387;-79
2024/01/30 11:17:53;;;;;;;88.40;44.70;;;;;;;;;;5045508;28;20876;-78
2024/01/30 11:20:33;;;;;;;110.90;51.97;;;;;;;;;;5044684;28;20469;-79
2024/01/30 11:22:59;;;;;;;110.88;54.85;;;;;;;;;;5045813;28;20394;-78
2024/01/30 11:25:25;;;;;;;101.07;48.65;;;;;;;;;;5043637;28;20781;-79
2024/01/30 11:27:53;;;;;;;85.60;43.50;;;;;;;;;;5043813;28;20395;-79
2024/01/30 11:30:23;;;;;;;90.07;44.15;;;;;;;;;;5043601;28;20379;-79
2024/01/30 11:33:04;;;;;;;83.75;43.25;;;;;;;;;;5044308;28;20387;-78
2024/01/30 11:35:34;;;;;;;81.65;41.65;;;;;;;;;;5043747;28;20395;-79
2024/01/30 11:38:00;;;;;;;89.85;45.13;;;;;;;;;;5045128;28;20383;-78
2024/01/30 11:40:30;;;;;;;77.68;42.78;;;;;;;;;;5043239;28;20399;-79
2024/01/30 11:42:57;;;;;;;76.15;41.35;;;;;;;;;;5045047;28;20401;-79
2024/01/30 11:45:22;;;;;;;76.63;40.50;;;;;;;;;;5028637;28;20416;-79
2024/01/30 11:47:48;;;;;;;81.68;43.65;;;;;;;;;;5028841;28;20391;-79
2024/01/30 11:50:15;;;;;;;77.72;42.03;;;;;;;;;;5044907;28;20490;-79
2024/01/30 11:52:41;;;;;;;70.97;40.53;;;;;;;;;;5045919;28;20402;-79
2024/01/30 11:55:08;;;;;;;79.75;41.40;;;;;;;;;;5044992;28;20445;-79
2024/01/30 11:57:37;;;;;;;85.03;43.20;;;;;;;;;;5044741;28;20402;-79
2024/01/30 12:00:10;;;;;;;88.78;46.13;;;;;;;;;;5045529;28;20386;-79
2024/01/30 12:02:36;;;;;;;81.40;41.92;;;;;;;;;;5045040;28;20916;-79
2024/01/30 12:05:09;;;;;;;90.63;46.73;;;;;;;;;;5046088;28;20441;-79
2024/01/30 12:07:35;;;;;;;91.23;45.67;;;;;;;;;;5045318;28;20464;-80
2024/01/30 12:10:02;;;;;;;92.03;46.50;;;;;;;;;;5046185;28;20769;-79
2024/01/30 12:12:28;;;;;;;92.78;46.00;;;;;;;;;;5045009;28;20502;-79
2024/01/30 12:14:55;;;;;;;92.22;45.88;;;;;;;;;;5046638;28;20931;-79
2024/01/30 12:17:31;;;;;;;80.95;42.85;;;;;;;;;;5045517;28;20391;-79
2024/01/30 12:20:07;;;;;;;86.80;44.72;;;;;;;;;;5044934;28;20465;-79
2024/01/30 12:22:37;;;;;;;88.73;45.37;;;;;;;;;;5043551;28;20383;-79
2024/01/30 12:25:03;;;;;;;87.25;46.42;;;;;;;;;;5040666;28;20407;-79
2024/01/30 12:27:30;;;;;;;105.03;53.13;;;;;;;;;;5045199;28;20379;-80
2024/01/30 12:29:57;;;;;;;91.82;46.88;;;;;;;;;;5045536;28;20391;-79
2024/01/30 12:32:23;;;;;;;87.87;46.27;;;;;;;;;;5045062;28;20375;-79
2024/01/30 12:34:49;;;;;;;95.15;46.35;;;;;;;;;;5046054;28;20383;-79
2024/01/30 12:37:22;;;;;;;92.10;46.13;;;;;;;;;;5045622;28;20402;-80
2024/01/30 12:39:48;;;;;;;91.88;46.92;;;;;;;;;;5044876;28;20390;-79
2024/01/30 12:42:14;;;;;;;87.00;45.22;;;;;;;;;;5043808;28;20410;-79
2024/01/30 12:44:40;;;;;;;85.88;45.90;;;;;;;;;;5045729;28;20414;-79
2024/01/30 12:47:06;;;;;;;84.25;44.08;;;;;;;;;;5046223;28;20425;-80
2024/01/30 12:49:32;;;;;;;52.00;31.42;;;;;;;;;;5046966;28;20402;-80
2024/01/30 12:51:59;;;;;;;44.90;27.75;;;;;;;;;;5027266;28;20398;-79
2024/01/30 12:54:25;;;;;;;41.35;27.73;;;;;;;;;;5045803;28;20434;-79
2024/01/30 12:56:51;;;;;;;40.13;27.60;;;;;;;;;;5045787;28;20430;-79
2024/01/30 12:59:17;;;;;;;38.28;25.70;;;;;;;;;;5046669;28;20387;-80
2024/01/30 13:01:43;;;;;;;40.05;28.60;;;;;;;;;;5045756;28;20880;-79
2024/01/30 13:04:09;;;;;;;43.40;27.52;;;;;;;;;;5023142;28;20419;-79
2024/01/30 13:06:35;;;;;;;36.20;24.77;;;;;;;;;;5042861;28;20419;-78
2024/01/30 13:09:01;;;;;;;35.78;26.20;;;;;;;;;;5044701;28;20390;-80
2024/01/30 13:11:27;;;;;;;35.33;26.08;;;;;;;;;;5045353;28;20383;-80
2024/01/30 13:13:53;;;;;;;45.17;28.00;;;;;;;;;;5045684;28;20371;-80
2024/01/30 13:16:19;;;;;;;33.28;25.08;;;;;;;;;;5044477;28;20454;-80
2024/01/30 13:18:45;;;;;;;35.13;25.02;;;;;;;;;;5044312;28;20461;-80
2024/01/30 13:21:11;;;;;;;35.30;24.23;;;;;;;;;;5044115;28;20418;-80
2024/01/30 13:23:37;;;;;;;35.45;24.08;;;;;;;;;;5044870;28;20461;-80
2024/01/30 13:26:03;;;;;;;39.45;27.00;;;;;;;;;;5043542;28;20441;-80
2024/01/30 13:28:29;;;;;;;35.03;25.20;;;;;;;;;;5044662;28;21097;-80
2024/01/30 13:30:55;;;;;;;38.13;25.55;;;;;;;;;;5045064;28;20376;-80
2024/01/30 13:33:21;;;;;;;35.40;25.13;;;;;;;;;;5044040;28;20449;-79
2024/01/30 13:35:48;;;;;;;36.60;25.50;;;;;;;;;;5044362;28;20405;-80
2024/01/30 13:38:15;;;;;;;32.03;24.60;;;;;;;;;;5043208;28;20379;-80
2024/01/30 13:40:41;;;;;;;36.13;25.70;;;;;;;;;;5043554;28;20739;-80
2024/01/30 13:43:07;;;;;;;33.40;25.55;;;;;;;;;;5043775;28;20390;-80
2024/01/30 13:45:33;;;;;;;32.38;24.20;;;;;;;;;;5043492;28;20457;-80
2024/01/30 13:47:59;;;;;;;28.23;23.13;;;;;;;;;;5026681;28;20789;-80
2024/01/30 13:50:25;;;;;;;30.17;23.85;;;;;;;;;;5042790;28;20462;-80
2024/01/30 13:52:51;;;;;;;28.20;21.48;;;;;;;;;;5044279;28;20399;-80
2024/01/30 13:55:17;;;;;;;28.75;21.77;;;;;;;;;;5044471;28;20777;-80
2024/01/30 13:57:43;;;;;;;26.77;21.02;;;;;;;;;;5044227;28;20447;-80
2024/01/30 14:00:09;;;;;;;25.45;20.83;;;;;;;;;;5044564;28;20402;-79
2024/01/30 14:02:35;;;;;;;26.30;21.15;;;;;;;;;;5045202;28;20792;-81
2024/01/30 14:05:01;;;;;;;28.67;22.88;;;;;;;;;;5042071;28;20407;-80
2024/01/30 14:07:27;;;;;;;28.25;21.98;;;;;;;;;;5041208;28;20400;-81
2024/01/30 14:09:53;;;;;;;30.30;23.77;;;;;;;;;;5043090;28;20394;-80
2024/01/30 14:12:19;;;;;;;30.27;23.20;;;;;;;;;;5043977;28;20498;-80